Baltic, SD (57003)

1:45 AM CST on February 11, 2016 (GMT -0600)
477th | | Change Station
CLOSE
Current Station
Personal Weather Station
Location: Baltic, SD
Elevation: 1562 ft
Nearby Weather Stations

Elev 1562 ft 43.71 °N, 96.67 °W | Updated 11 minutes ago

Overcast
Overcast
10.9 °F
Feels Like 3 °F
N
4.7
Wind Variable Wind from East

Today
High -- | Low -- °F
--% Chance of Precip.
Yesterday
High -- | Low -- °F
Precip. -- in
Pressure 30.34 in
Visibility 10.0 miles
Clouds Overcast 2100 ft
Windchill 3 °F
Dew Point 8 °F
Humidity 86%
Rainfall 0.00 in
Snow Depth Not available.
7:31 AM 5:51 PM
Waxing Crescent, 10% visible
METAR KFSD 110656Z AUTO 06005KT 10SM OVC021 M11/M14 A3025 RMK AO2 SLP273 T11061144
Pressure 30.34 in
Visibility 10.0 miles
Clouds Overcast 2100 ft
Windchill 3 °F
Dew Point 8 °F
Humidity 86%
Rainfall 0.00 in
Snow Depth Not available.
7:31 AM 5:51 PM
Waxing Crescent, 10% visible
METAR KFSD 110656Z AUTO 06005KT 10SM OVC021 M11/M14 A3025 RMK AO2 SLP273 T11061144

10-Day Weather Forecast

Almanac

Astronomy

Feb. 11, 2016 Rise Set
Actual Time
Civil Twilight
Nautical Twilight
Astronomical Twilight
Moon
Length of Visible Light
Length of Day
Tomorrow will be .
, % of the Moon is Illuminated

Today's Extremes

State Highs State Lows

Community

WunderPhotos

Upload Photos

1,892,030 photos uploaded!

WunderBlog® & News

Nearby

Air Quality

  Air Quality AQ Index Pollutant
Not available.

Snow Depth

Station Depth Elevation

Earthquake Activity

City Distance Mag. Time & Date
Minimum magnitude displayed is 2.5.

Coastal Water Temperatures

Place Temperature

Stations

Nearby Weather Stations

Station Location Temp. Windchill Dew Point Humidity Wind Precip. Elev Updated Type
                   

Watches & Warnings

There are currently no watches in effect.